Home > Products > Valid Products > TAF

000
FTUS44 KFWD 251100
TAFACT
TAF
KACT 251127Z 2512/2612 22006KT P6SM SKC
     FM251500 29011KT P6SM SCT300
     FM251700 33018G28KT P6SM SCT300
     FM260100 30012KT P6SM SKC=



000
FTUS44 KFWD 251100
TAFDFW
TAF
KDFW 251127Z 2512/2618 28012KT P6SM SCT300
     FM251500 32015KT P6SM SCT300
     FM251600 33018G28KT P6SM SCT300
     FM260100 32012KT P6SM SKC=



000
FTUS44 KFWD 251100
TAFFTW
TAF
KFTW 251127Z 2512/2612 28012KT P6SM SCT300
     FM251500 32015KT P6SM SCT300
     FM251600 33018G28KT P6SM SCT300
     FM260100 32012KT P6SM SKC=



000
FTUS44 KFWD 250900 AAA
TAFACT
TAF AMD
KACT 250908Z 2509/2606 22006KT P6SM SKC
     FM251500 29011KT P6SM BKN300
     FM251800 33017G27KT P6SM BKN300
     FM260200 30010KT P6SM SKC=



000
FTUS44 KFWD 250900 AAA
TAFFTW
TAF AMD
KFTW 250908Z 2509/2606 24007KT P6SM SCT300
     FM251100 30013KT P6SM BKN300
     FM251600 33017G27KT P6SM SCT300
     FM260100 31010KT P6SM SKC=



000
FTUS44 KFWD 250900 AAA
TAFDFW
TAF AMD
KDFW 250908Z 2509/2612 24007KT P6SM SCT300
     FM251100 30013KT P6SM BKN300
     FM251600 33017G27KT P6SM SCT300
     FM260100 31010KT P6SM SKC=



000
FTUS44 KFWD 250500
TAFFTW
TAF
KFTW 250520Z 2506/2606 24007KT P6SM SCT300
     FM251100 30013KT P6SM BKN300
     FM251600 33017G27KT P6SM SCT300
     FM260100 31010KT P6SM SKC=



000
FTUS44 KFWD 250500
TAFDFW
TAF
KDFW 250520Z 2506/2612 24007KT P6SM SCT300
     FM251100 30013KT P6SM BKN300
     FM251600 33017G27KT P6SM SCT300
     FM260100 31010KT P6SM SKC=



000
FTUS44 KFWD 250500
TAFACT
TAF
KACT 250520Z 2506/2606 19005KT P6SM SKC
     FM251500 29011KT P6SM BKN300
     FM251800 33017G27KT P6SM BKN300
     FM260200 30010KT P6SM SKC=



000
FTUS44 KFWD 250200 AAA
TAFACT
TAF AMD
KACT 250251Z 2503/2524 20005KT P6SM BKN300
     FM251500 31011KT P6SM BKN300
     FM251800 34017G27KT P6SM BKN300=



000
FTUS44 KFWD 250200 AAA
TAFDFW
TAF AMD
KDFW 250251Z 2503/2606 22006KT P6SM SCT300
     FM251400 31013KT P6SM BKN300
     FM251600 33017G27KT P6SM SCT300
     FM260100 34011KT P6SM SKC=



000
FTUS44 KFWD 250200 AAA
TAFFTW
TAF AMD
KFTW 250251Z 2503/2524 22006KT P6SM SCT300
     FM251400 31013KT P6SM BKN300
     FM251600 33017G27KT P6SM SCT300=



000
FTUS44 KFWD 242300
TAFACT
TAF
KACT 242323Z 2500/2524 24007KT P6SM OVC300
     FM251500 31011KT P6SM BKN300
     FM251800 34017G27KT P6SM BKN300=



000
FTUS44 KFWD 242300
TAFDFW
TAF
KDFW 242323Z 2500/2606 25007KT P6SM BKN300
     FM251400 31013KT P6SM SCT300
     FM251600 33017G27KT P6SM SCT300
     FM260100 34011KT P6SM SKC=



000
FTUS44 KFWD 242300
TAFFTW
TAF
KFTW 242323Z 2500/2524 25007KT P6SM BKN300
     FM251400 31013KT P6SM SCT300
     FM251600 33017G27KT P6SM SCT300=



000
FTUS44 KFWD 242000 AAA
TAFACT
TAF AMD
KACT 242059Z 2421/2518 22005KT P6SM SKC
     FM251500 31012KT P6SM SCT250=



000
FTUS44 KFWD 242000 AAA
TAFDFW
TAF AMD
KDFW 242059Z 2421/2524 27007KT P6SM SCT250
     FM251300 32014KT P6SM SKC
     FM251800 32015G25KT P6SM SKC=



000
FTUS44 KFWD 242000 AAA
TAFFTW
TAF AMD
KFTW 242059Z 2421/2518 26006KT P6SM SCT250
     FM251300 32014KT P6SM SKC=



000
FTUS44 KFWD 241700
TAFDFW
TAF
KDFW 241720Z 2418/2524 33010KT P6SM SCT250
     FM250000 24006KT P6SM SCT250
     FM251300 32014KT P6SM SKC
     FM251800 32015G25KT P6SM SKC=



000
FTUS44 KFWD 241700
TAFFTW
TAF
KFTW 241720Z 2418/2518 31010KT P6SM SCT250
     FM250000 24006KT P6SM SCT250
     FM251300 32014KT P6SM SKC=



000
FTUS44 KFWD 241700
TAFACT
TAF
KACT 241720Z 2418/2518 30009KT P6SM SKC
     FM250000 22005KT P6SM SKC
     FM251500 31012KT P6SM SCT250=



000
FTUS44 KFWD 241500 AAA
TAFFTW
TAF AMD
KFTW 241514Z 2415/2512 24006KT P6SM SKC
     FM241600 31010KT P6SM SKC
     FM250000 25006KT P6SM SCT250=



000
FTUS44 KFWD 241500 AAA
TAFDFW
TAF AMD
KDFW 241514Z 2415/2518 24006KT P6SM SKC
     FM241600 31010KT P6SM SKC
     FM250000 25006KT P6SM SCT250=



000
FTUS44 KFWD 241500 AAA
TAFACT
TAF AMD
KACT 241514Z 2415/2512 23005KT P6SM SKC
     FM241600 30008KT P6SM SKC
     FM250000 26005KT P6SM SCT250=



000
FTUS44 KFWD 241100
TAFACT
TAF
KACT 241128Z 2412/2512 23005KT P6SM SKC
     FM241600 30008KT P6SM SKC
     FM250000 26005KT P6SM SCT250=



000
FTUS44 KFWD 241100
TAFFTW
TAF
KFTW 241128Z 2412/2512 24006KT P6SM SKC
     FM241500 31010KT P6SM SKC
     FM250000 25006KT P6SM SCT250=



000
FTUS44 KFWD 241100
TAFDFW
TAF
KDFW 241128Z 2412/2518 24006KT P6SM SKC
     FM241500 31010KT P6SM SKC
     FM250000 25006KT P6SM SCT250=



000
FTUS44 KFWD 240900 AAA
TAFDFW
TAF AMD
KDFW 240900Z 2409/2512 26006KT P6SM SKC
     FM241500 31010KT P6SM SKC
     FM250000 25006KT P6SM SCT250=



000
FTUS44 KFWD 240900 AAA
TAFACT
TAF AMD
KACT 240900Z 2409/2506 26005KT P6SM SKC
     FM241600 31008KT P6SM SKC
     FM250000 26005KT P6SM SCT250=



000
FTUS44 KFWD 240900 AAA
TAFFTW
TAF AMD
KFTW 240900Z 2409/2506 26006KT P6SM SKC
     FM241500 31010KT P6SM SKC
     FM250000 25006KT P6SM SCT250=



000
FTUS44 KFWD 240500
TAFDFW
TAF
KDFW 240521Z 2406/2512 26006KT P6SM SKC
     FM241500 31010KT P6SM SKC
     FM250000 25006KT P6SM SCT250=



000
FTUS44 KFWD 240500
TAFFTW
TAF
KFTW 240521Z 2406/2506 26006KT P6SM SKC
     FM241500 31010KT P6SM SKC
     FM250000 25006KT P6SM SCT250=



000
FTUS44 KFWD 240500
TAFACT
TAF
KACT 240521Z 2406/2506 26005KT P6SM SKC
     FM241600 31008KT P6SM SKC
     FM250000 26005KT P6SM SCT250=



000
FTUS44 KFWD 240200 AAB
TAFDFW
TAF AMD
KDFW 240257Z 2403/2506 26006KT P6SM SKC
     FM241500 31010KT P6SM SKC=



000
FTUS44 KFWD 240200 AAB
TAFACT
TAF AMD
KACT 240257Z 2403/2424 26005KT P6SM SKC
     FM241500 31010KT P6SM SKC=



000
FTUS44 KFWD 240200 AAB
TAFFTW
TAF AMD
KFTW 240257Z 2403/2424 26006KT P6SM SKC
     FM241500 31010KT P6SM SKC=



000
FTUS44 KFWD 240100 AAA
TAFACT
TAF AMD
KACT 240111Z 2401/2424 29006KT P6SM SKC
     FM240300 26005KT P6SM SKC
     FM241500 31010KT P6SM SKC=



000
FTUS44 KFWD 240100 AAA
TAFFTW
TAF AMD
KFTW 240111Z 2401/2424 31009KT P6SM FEW250
     FM240300 26006KT P6SM SKC
     FM241500 31010KT P6SM SKC=



000
FTUS44 KFWD 240100 AAA
TAFDFW
TAF AMD
KDFW 240111Z 2401/2506 31009KT P6SM FEW250
     FM240300 26006KT P6SM SKC
     FM241500 31010KT P6SM SKC=



000
FTUS44 KFWD 232300
TAFDFW
TAF
KDFW 232320Z 2400/2506 34012KT P6SM SCT250
     FM240300 26006KT P6SM SKC
     FM241500 31010KT P6SM SKC=



000
FTUS44 KFWD 232300
TAFFTW
TAF
KFTW 232320Z 2400/2424 34012KT P6SM SCT250
     FM240300 26006KT P6SM SKC
     FM241500 31010KT P6SM SKC=



000
FTUS44 KFWD 232300
TAFACT
TAF
KACT 232320Z 2400/2424 32007KT P6SM FEW250
     FM240300 26005KT P6SM SKC
     FM241500 31010KT P6SM SKC=



000
FTUS44 KFWD 232100 AAA
TAFACT
TAF AMD
KACT 232101Z 2321/2418 32015KT P6SM SCT040 BKN110
     FM240300 26005KT P6SM SCT250
     FM241500 31010KT P6SM SKC=



000
FTUS44 KFWD 232100 AAA
TAFDFW
TAF AMD
KDFW 232101Z 2321/2424 34012KT P6SM FEW040 SCT120 BKN250
     FM240300 26006KT P6SM SCT250
     FM241500 31010KT P6SM SKC=



000
FTUS44 KFWD 232100 AAA
TAFFTW
TAF AMD
KFTW 232101Z 2321/2418 31012KT P6SM BKN090 BKN250
     FM240300 27005KT P6SM SCT250
     FM241500 31010KT P6SM SKC=



000
FTUS44 KFWD 231700
TAFFTW
TAF
KFTW 231720Z 2318/2418 34010KT P6SM SCT120 BKN250
     FM240300 28007KT P6SM SCT250=



000
FTUS44 KFWD 231700
TAFACT
TAF
KACT 231720Z 2318/2418 34010KT P6SM BKN060 OVC100
     FM240200 28005KT P6SM BKN250=



000
FTUS44 KFWD 231700
TAFDFW
TAF
KDFW 231720Z 2318/2424 34012KT P6SM SCT120 BKN250
     FM240300 29007KT P6SM SCT250=



000
FTUS44 KFWD 231500 AAC
TAFACT
TAF AMD
KACT 231506Z 2315/2412 34010KT P6SM OVC090
     FM240000 30007KT P6SM SCT100=



000
FTUS44 KFWD 231500 AAA
TAFDFW
TAF AMD
KDFW 231506Z 2315/2418 34013KT P6SM OVC100
     FM231900 32012KT P6SM BKN120
     FM240000 28007KT P6SM SCT250=



000
FTUS44 KFWD 231500 AAA
TAFFTW
TAF AMD
KFTW 231506Z 2315/2412 33010KT P6SM OVC100
     FM231900 32012KT P6SM BKN120
     FM240000 28007KT P6SM SCT250=



000
FTUS44 KFWD 231300 AAB
TAFACT
TAF AMD
KACT 231350Z 2314/2412 35010KT P6SM SCT025 OVC080
      TEMPO 2316/2318 6SM -RA BKN025
     FM232100 33010KT P6SM SCT060 BKN100
     FM240000 30007KT P6SM SCT100=



000
FTUS44 KFWD 231200 AAA
TAFACT
TAF AMD
KACT 231209Z 2312/2412 34008KT P6SM -RA OVC025
      TEMPO 2315/2319 6SM -RA BKN015
     FM231900 33012KT P6SM SCT030 BKN060
     FM232100 33010KT P6SM SCT060 BKN100
     FM240000 30007KT P6SM SCT100=



000
FTUS44 KFWD 231100
TAFFTW
TAF
KFTW 231140Z 2312/2412 34010KT P6SM OVC090
     FM231900 32012KT P6SM BKN120
     FM240000 28007KT P6SM SCT250=



000
FTUS44 KFWD 231100
TAFDFW
TAF
KDFW 231140Z 2312/2418 34010KT P6SM OVC090
     FM231900 32012KT P6SM BKN120
     FM240000 28007KT P6SM SCT250=



000
FTUS44 KFWD 231100
TAFACT
TAF
KACT 231140Z 2312/2412 34008KT P6SM OVC025
      TEMPO 2312/2314 5SM -RA BKN015
     FM231800 33012KT P6SM SCT050 BKN100
     FM232300 30007KT P6SM SCT100=



000
FTUS44 KFWD 230900 AAA
TAFACT
TAF AMD
KACT 230902Z 2309/2406 01012KT P6SM SCT009 OVC012
     FM231400 34011KT P6SM SCT015 OVC025
     FM231800 33012KT P6SM SCT050 BKN100
     FM232300 30007KT P6SM SCT100=



000
FTUS44 KFWD 230900 AAA
TAFFTW
TAF AMD
KFTW 230902Z 2309/2406 36010KT P6SM SCT035 OVC090
     FM231800 32012KT P6SM BKN120
     FM240000 28007KT P6SM SCT250=



000
FTUS44 KFWD 230900 AAA
TAFDFW
TAF AMD
KDFW 230902Z 2309/2412 36010KT P6SM SCT035 OVC090
     FM231800 32012KT P6SM BKN120
     FM240000 28007KT P6SM SCT250=



000
FTUS44 KFWD 230500
TAFACT
TAF
KACT 230530Z 2306/2406 01012KT P6SM SCT009 OVC015
      TEMPO 2306/2309 -RA BKN009
     FM231400 34011KT P6SM SCT015 OVC025
     FM231600 33012KT P6SM SCT050 BKN100
     FM232300 30007KT P6SM SCT100=



000
FTUS44 KFWD 230500
TAFDFW
TAF
KDFW 230530Z 2306/2412 01009KT P6SM BKN020 BKN040
      TEMPO 2306/2309 -RA BKN015
     FM231300 34012KT P6SM BKN090
     FM231800 32012KT P6SM SCT100
     FM240000 27007KT P6SM SCT250=



000
FTUS44 KFWD 230500
TAFFTW
TAF
KFTW 230530Z 2306/2406 01008KT P6SM BKN020 BKN040
      TEMPO 2306/2309 -RA BKN015
     FM231300 34012KT P6SM BKN090
     FM231800 32012KT P6SM SCT100
     FM240000 27007KT P6SM SCT250=



000
FTUS44 KFWD 230300 AAA
TAFDFW
TAF AMD
KDFW 230305Z 2303/2406 02011KT P6SM OVC012
      TEMPO 2303/2307 -RA BKN009
     FM230700 01011KT P6SM BKN009 OVC025
     FM231100 35011KT P6SM OVC025
     FM231400 33012KT P6SM BKN100
     FM231800 32012KT P6SM SCT100=



000
FTUS44 KFWD 230300 AAA
TAFFTW
TAF AMD
KFTW 230305Z 2303/2324 02011KT P6SM -RA OVC015
      TEMPO 2305/2308 5SM -RA BKN009
     FM230800 02013KT P6SM BKN009 OVC025
     FM231200 35011KT P6SM OVC025
     FM231400 33012KT P6SM BKN100
     FM231800 32012KT P6SM SCT100=



000
FTUS44 KFWD 230300 AAA
TAFACT
TAF AMD
KACT 230305Z 2303/2324 01012KT P6SM OVC012
      TEMPO 2307/2311 -RA BKN009
     FM231400 34011KT P6SM SCT015 OVC025
     FM231600 33012KT P6SM BKN100=



000
FTUS44 KFWD 222300
TAFDFW
TAF
KDFW 222335Z 2300/2406 04012KT P6SM -RA OVC015
      TEMPO 2304/2307 4SM -RA BR BKN008
     FM230700 02013KT P6SM BKN008 OVC020
     FM231100 35011KT P6SM OVC020
     FM231400 33012KT P6SM BKN100
     FM231800 32012KT P6SM SCT100=



000
FTUS44 KFWD 222300
TAFFTW
TAF
KFTW 222335Z 2300/2324 02014KT P6SM -RA OVC015
      TEMPO 2304/2307 4SM -RA BR BKN008
     FM230700 02013KT P6SM BKN008 OVC020
     FM231100 35011KT P6SM OVC020
     FM231400 33012KT P6SM BKN100
     FM231800 32012KT P6SM SCT100=



000
FTUS44 KFWD 222300
TAFACT
TAF
KACT 222335Z 2300/2324 02015KT P6SM -RA OVC012
     FM230600 36013KT P6SM BKN007 OVC012
      TEMPO 2306/2309 4SM -RA BR
     FM231300 34011KT P6SM SCT015 OVC025
     FM231400 33012KT P6SM BKN100=



000
FTUS44 KFWD 222000 AAB
TAFACT
TAF AMD
KACT 222056Z 2221/2318 03018KT 4SM -RA BR OVC012
     FM231600 34013KT P6SM BKN025=



000
FTUS44 KFWD 222000 AAB
TAFFTW
TAF AMD
KFTW 222056Z 2221/2318 04014KT 3SM -RA BR BKN008
     FM231200 35012KT P6SM OVC015
     FM231400 34010KT P6SM BKN100=



000
FTUS44 KFWD 222000 AAB
TAFDFW
TAF AMD
KDFW 222056Z 2221/2324 04012KT 4SM -RA BR OVC015
     FM230300 02013KT 3SM -RA BR OVC008
     FM231200 35012KT P6SM OVC015
     FM231400 34010KT P6SM BKN100=



000
FTUS44 KFWD 221900 AAA
TAFFTW
TAF AMD
KFTW 221955Z 2220/2318 04014KT 2SM -RA BR BKN009
     FM230300 02013KT 5SM -RA BR OVC008
     FM231200 35012KT P6SM OVC015
     FM231400 34010KT P6SM BKN100=



000
FTUS44 KFWD 221900 AAA
TAFDFW
TAF AMD
KDFW 221955Z 2220/2324 05018KT P6SM VCSH OVC015
     FM230300 02013KT 5SM -RA BR OVC008
     FM231200 35012KT P6SM OVC015
     FM231400 34010KT P6SM BKN100=



000
FTUS44 KFWD 221900 AAA
TAFACT
TAF AMD
KACT 221955Z 2220/2318 03018KT 4SM -RA OVC010
     FM222100 02018KT P6SM VCSH OVC012
     FM230300 36017KT 5SM -RA BR OVC012
     FM231600 34013KT P6SM BKN025=



000
FTUS44 KFWD 221700
TAFDFW
TAF
KDFW 221720Z 2218/2324 04017KT P6SM VCSH OVC012
     FM230300 02013KT 5SM -RA BR OVC008
     FM231200 35012KT P6SM OVC015=



000
FTUS44 KFWD 221700
TAFFTW
TAF
KFTW 221720Z 2218/2318 05017KT P6SM VCSH OVC010
     FM230300 02013KT 5SM -RA BR OVC008
     FM231200 35012KT P6SM OVC015=



000
FTUS44 KFWD 221700
TAFACT
TAF
KACT 221720Z 2218/2318 03019KT P6SM -RA OVC012
     FM222100 02018KT P6SM VCSH OVC012
     FM230300 36017KT 5SM -RA BR OVC012=



000
FTUS44 KFWD 221500 AAA
TAFFTW
TAF AMD
KFTW 221517Z 2215/2312 03020G30KT 6SM -RA OVC007
     FM221800 03018KT P6SM OVC012
     FM230300 02013KT 5SM -RA BR OVC008=



000
FTUS44 KFWD 221500 AAA
TAFDFW
TAF AMD
KDFW 221517Z 2215/2318 04017KT 6SM -RA BR SCT007 OVC015
     FM221800 03018KT P6SM VCSH OVC014
     FM230300 02013KT 5SM -RA BR OVC008
     FM231400 35012KT P6SM OVC015=



000
FTUS44 KFWD 221500 AAA
TAFACT
TAF AMD
KACT 221517Z 2215/2312 03019KT 6SM -RA BR OVC012
     FM221900 02018KT P6SM VCSH OVC012
     FM230200 01017KT 6SM -RA BR OVC012=



    US Dept of Commerce
    National Oceanic and Atmospheric Administration
    National Weather Service
    1325 East West Highway
    Silver Spring, MD 20910
    Page Author: NWS Internet Services Team
Disclaimer
Information Quality
Credits
Glossary
Privacy Policy
Freedom of Information Act (FOIA)
About Us
Career Opportunities